Terminal Aerodrome Forecast
Issued by NWS

Home | Current Version | Previous Version | Text Only | Print | Product List | Glossary Off
Versions: 1 2 3 4 5 6 7 8 9 10 11 12 13 14 15 16 17 18 19 20 21 22 23 24 25 26 27 28 29 30 31 32 33

000
FTUS43 KLOT 240900 AAA
TAFDPA
TAF AMD
KDPA 240901Z 2409/2506 22014G22KT P6SM BKN150 WS015/25045KT
     FM241400 23018G26KT P6SM BKN050
      TEMPO 2417/2419 3SM -SHSN
     FM242000 26015G25KT P6SM BKN025
     FM250200 28013KT P6SM SCT035=

USA.gov is the U.S. government's official web portal to all federal, state and local government web resources and services.